sensor_id;sensor_type;location;lat;lon;timestamp;P1;durP1;ratioP1;P2;durP2;ratioP2
11709;SDS011;5911;51.036;6.972;2022-07-29T00:01:13;4.47;;;1.42;;
11709;SDS011;5911;51.036;6.972;2022-07-29T00:03:45;3.10;;;1.38;;
11709;SDS011;5911;51.036;6.972;2022-07-29T00:06:13;3.03;;;1.50;;
11709;SDS011;5911;51.036;6.972;2022-07-29T00:08:41;2.75;;;1.38;;
11709;SDS011;5911;51.036;6.972;2022-07-29T00:11:09;4.60;;;1.58;;
11709;SDS011;5911;51.036;6.972;2022-07-29T00:13:37;2.42;;;1.45;;
11709;SDS011;5911;51.036;6.972;2022-07-29T00:16:06;2.88;;;1.58;;
11709;SDS011;5911;51.036;6.972;2022-07-29T00:18:34;5.78;;;1.67;;
11709;SDS011;5911;51.036;6.972;2022-07-29T00:21:02;4.78;;;1.63;;
11709;SDS011;5911;51.036;6.972;2022-07-29T00:23:30;2.38;;;1.63;;
11709;SDS011;5911;51.036;6.972;2022-07-29T00:26:02;4.05;;;1.30;;
11709;SDS011;5911;51.036;6.972;2022-07-29T00:28:30;2.90;;;1.48;;
11709;SDS011;5911;51.036;6.972;2022-07-29T00:30:57;3.75;;;1.58;;
11709;SDS011;5911;51.036;6.972;2022-07-29T00:33:27;2.38;;;1.75;;
11709;SDS011;5911;51.036;6.972;2022-07-29T00:35:55;4.13;;;1.70;;
11709;SDS011;5911;51.036;6.972;2022-07-29T00:38:22;3.50;;;1.58;;
11709;SDS011;5911;51.036;6.972;2022-07-29T00:40:50;2.85;;;1.58;;
11709;SDS011;5911;51.036;6.972;2022-07-29T00:43:18;2.53;;;1.45;;
11709;SDS011;5911;51.036;6.972;2022-07-29T00:45:46;2.47;;;1.50;;
11709;SDS011;5911;51.036;6.972;2022-07-29T00:48:14;5.30;;;1.42;;
11709;SDS011;5911;51.036;6.972;2022-07-29T00:50:43;2.65;;;1.63;;
11709;SDS011;5911;51.036;6.972;2022-07-29T00:53:11;2.80;;;1.48;;
11709;SDS011;5911;51.036;6.972;2022-07-29T00:55:39;3.75;;;1.40;;
11709;SDS011;5911;51.036;6.972;2022-07-29T00:58:07;4.78;;;1.73;;
11709;SDS011;5911;51.036;6.972;2022-07-29T01:00:35;1.85;;;1.38;;
11709;SDS011;5911;51.036;6.972;2022-07-29T01:03:03;2.92;;;1.80;;
11709;SDS011;5911;51.036;6.972;2022-07-29T01:05:31;2.33;;;1.33;;
11709;SDS011;5911;51.036;6.972;2022-07-29T01:08:17;2.78;;;1.30;;
11709;SDS011;5911;51.036;6.972;2022-07-29T01:10:46;3.40;;;1.58;;
11709;SDS011;5911;51.036;6.972;2022-07-29T01:13:15;1.45;;;1.30;;
11709;SDS011;5911;51.036;6.972;2022-07-29T01:15:44;3.78;;;1.60;;
11709;SDS011;5911;51.036;6.972;2022-07-29T01:18:16;3.70;;;1.55;;
11709;SDS011;5911;51.036;6.972;2022-07-29T01:21:00;2.28;;;1.30;;
11709;SDS011;5911;51.036;6.972;2022-07-29T01:23:51;2.78;;;1.35;;
11709;SDS011;5911;51.036;6.972;2022-07-29T01:26:31;1.42;;;1.08;;
11709;SDS011;5911;51.036;6.972;2022-07-29T01:29:12;2.53;;;1.30;;
11709;SDS011;5911;51.036;6.972;2022-07-29T01:31:45;2.13;;;1.40;;
11709;SDS011;5911;51.036;6.972;2022-07-29T01:34:26;3.35;;;1.40;;
11709;SDS011;5911;51.036;6.972;2022-07-29T01:37:01;3.97;;;1.70;;
11709;SDS011;5911;51.036;6.972;2022-07-29T01:39:34;2.47;;;1.83;;
11709;SDS011;5911;51.036;6.972;2022-07-29T01:42:06;3.58;;;1.60;;
11709;SDS011;5911;51.036;6.972;2022-07-29T01:44:39;3.58;;;1.70;;
11709;SDS011;5911;51.036;6.972;2022-07-29T01:47:13;2.40;;;1.52;;
11709;SDS011;5911;51.036;6.972;2022-07-29T01:49:46;6.18;;;1.90;;
11709;SDS011;5911;51.036;6.972;2022-07-29T01:52:19;3.88;;;1.60;;
11709;SDS011;5911;51.036;6.972;2022-07-29T01:54:51;4.20;;;1.50;;
11709;SDS011;5911;51.036;6.972;2022-07-29T01:57:24;2.97;;;1.60;;
11709;SDS011;5911;51.036;6.972;2022-07-29T01:59:56;3.80;;;1.65;;
11709;SDS011;5911;51.036;6.972;2022-07-29T02:02:26;1.63;;;1.30;;
11709;SDS011;5911;51.036;6.972;2022-07-29T02:04:55;4.22;;;1.63;;
11709;SDS011;5911;51.036;6.972;2022-07-29T02:07:24;5.20;;;1.52;;
11709;SDS011;5911;51.036;6.972;2022-07-29T02:09:55;3.25;;;1.30;;
11709;SDS011;5911;51.036;6.972;2022-07-29T02:12:27;3.15;;;1.45;;
11709;SDS011;5911;51.036;6.972;2022-07-29T02:14:59;4.10;;;1.77;;
11709;SDS011;5911;51.036;6.972;2022-07-29T02:17:31;4.40;;;1.70;;
11709;SDS011;5911;51.036;6.972;2022-07-29T02:20:06;2.30;;;1.55;;
11709;SDS011;5911;51.036;6.972;2022-07-29T02:22:37;1.75;;;1.42;;
11709;SDS011;5911;51.036;6.972;2022-07-29T02:25:07;3.83;;;1.60;;
11709;SDS011;5911;51.036;6.972;2022-07-29T02:27:39;3.53;;;1.48;;
11709;SDS011;5911;51.036;6.972;2022-07-29T02:30:10;2.50;;;1.45;;
11709;SDS011;5911;51.036;6.972;2022-07-29T02:32:40;3.47;;;1.63;;
11709;SDS011;5911;51.036;6.972;2022-07-29T02:35:12;3.60;;;1.65;;
11709;SDS011;5911;51.036;6.972;2022-07-29T02:37:42;4.35;;;1.75;;
11709;SDS011;5911;51.036;6.972;2022-07-29T02:40:11;2.83;;;1.75;;
11709;SDS011;5911;51.036;6.972;2022-07-29T02:42:42;5.57;;;1.80;;
11709;SDS011;5911;51.036;6.972;2022-07-29T02:45:14;2.45;;;1.48;;
11709;SDS011;5911;51.036;6.972;2022-07-29T02:47:42;5.60;;;1.80;;
11709;SDS011;5911;51.036;6.972;2022-07-29T02:50:15;3.95;;;1.80;;
11709;SDS011;5911;51.036;6.972;2022-07-29T02:52:49;5.68;;;2.05;;
11709;SDS011;5911;51.036;6.972;2022-07-29T02:55:22;3.70;;;2.05;;
11709;SDS011;5911;51.036;6.972;2022-07-29T02:57:54;4.72;;;1.75;;
11709;SDS011;5911;51.036;6.972;2022-07-29T03:00:30;5.45;;;1.63;;
11709;SDS011;5911;51.036;6.972;2022-07-29T03:03:01;3.92;;;1.40;;
11709;SDS011;5911;51.036;6.972;2022-07-29T03:05:34;4.00;;;1.40;;
11709;SDS011;5911;51.036;6.972;2022-07-29T03:08:04;2.58;;;1.55;;
11709;SDS011;5911;51.036;6.972;2022-07-29T03:10:34;3.20;;;1.50;;
11709;SDS011;5911;51.036;6.972;2022-07-29T03:13:04;6.75;;;1.50;;
11709;SDS011;5911;51.036;6.972;2022-07-29T03:15:35;4.45;;;1.70;;
11709;SDS011;5911;51.036;6.972;2022-07-29T03:18:04;2.97;;;2.05;;
11709;SDS011;5911;51.036;6.972;2022-07-29T03:20:34;6.60;;;1.60;;
11709;SDS011;5911;51.036;6.972;2022-07-29T03:23:02;3.47;;;1.38;;
11709;SDS011;5911;51.036;6.972;2022-07-29T03:25:30;4.63;;;1.70;;
11709;SDS011;5911;51.036;6.972;2022-07-29T03:27:58;4.25;;;1.92;;
11709;SDS011;5911;51.036;6.972;2022-07-29T03:30:26;3.03;;;1.73;;
11709;SDS011;5911;51.036;6.972;2022-07-29T03:32:58;3.50;;;1.67;;
11709;SDS011;5911;51.036;6.972;2022-07-29T03:35:27;2.05;;;1.55;;
11709;SDS011;5911;51.036;6.972;2022-07-29T03:37:57;3.97;;;1.85;;
11709;SDS011;5911;51.036;6.972;2022-07-29T03:40:26;3.35;;;1.85;;
11709;SDS011;5911;51.036;6.972;2022-07-29T03:42:59;6.70;;;1.65;;
11709;SDS011;5911;51.036;6.972;2022-07-29T03:45:29;4.68;;;2.15;;
11709;SDS011;5911;51.036;6.972;2022-07-29T03:48:01;9.30;;;2.10;;
11709;SDS011;5911;51.036;6.972;2022-07-29T03:50:33;5.50;;;1.90;;
11709;SDS011;5911;51.036;6.972;2022-07-29T03:53:02;3.30;;;2.00;;
11709;SDS011;5911;51.036;6.972;2022-07-29T03:55:32;4.85;;;2.28;;
11709;SDS011;5911;51.036;6.972;2022-07-29T03:58:03;7.53;;;2.30;;
11709;SDS011;5911;51.036;6.972;2022-07-29T04:00:33;7.07;;;2.13;;
11709;SDS011;5911;51.036;6.972;2022-07-29T04:03:02;4.18;;;1.88;;
11709;SDS011;5911;51.036;6.972;2022-07-29T04:05:37;6.55;;;2.42;;
11709;SDS011;5911;51.036;6.972;2022-07-29T04:08:05;5.22;;;2.00;;
11709;SDS011;5911;51.036;6.972;2022-07-29T04:10:33;4.85;;;2.28;;
11709;SDS011;5911;51.036;6.972;2022-07-29T04:13:01;4.75;;;2.20;;
11709;SDS011;5911;51.036;6.972;2022-07-29T04:15:29;7.50;;;2.50;;
11709;SDS011;5911;51.036;6.972;2022-07-29T04:17:57;6.43;;;2.45;;
11709;SDS011;5911;51.036;6.972;2022-07-29T04:20:27;4.30;;;2.40;;
11709;SDS011;5911;51.036;6.972;2022-07-29T04:22:55;5.95;;;2.05;;
11709;SDS011;5911;51.036;6.972;2022-07-29T04:25:22;4.20;;;1.90;;
11709;SDS011;5911;51.036;6.972;2022-07-29T04:27:50;5.45;;;1.60;;
11709;SDS011;5911;51.036;6.972;2022-07-29T04:30:30;10.63;;;2.17;;
11709;SDS011;5911;51.036;6.972;2022-07-29T04:32:59;4.18;;;1.48;;
11709;SDS011;5911;51.036;6.972;2022-07-29T04:35:29;4.55;;;1.80;;
11709;SDS011;5911;51.036;6.972;2022-07-29T04:38:05;4.05;;;1.80;;
11709;SDS011;5911;51.036;6.972;2022-07-29T04:40:42;5.15;;;1.70;;
11709;SDS011;5911;51.036;6.972;2022-07-29T04:43:10;6.57;;;1.80;;
11709;SDS011;5911;51.036;6.972;2022-07-29T04:45:40;4.22;;;1.67;;
11709;SDS011;5911;51.036;6.972;2022-07-29T04:48:08;8.63;;;2.05;;
11709;SDS011;5911;51.036;6.972;2022-07-29T04:50:39;5.10;;;1.75;;
11709;SDS011;5911;51.036;6.972;2022-07-29T04:53:07;4.90;;;1.70;;
11709;SDS011;5911;51.036;6.972;2022-07-29T04:55:35;4.90;;;2.13;;
11709;SDS011;5911;51.036;6.972;2022-07-29T04:58:04;4.78;;;2.03;;
11709;SDS011;5911;51.036;6.972;2022-07-29T05:00:32;4.43;;;2.03;;
11709;SDS011;5911;51.036;6.972;2022-07-29T05:02:59;7.43;;;1.85;;
11709;SDS011;5911;51.036;6.972;2022-07-29T05:05:27;4.97;;;1.70;;
11709;SDS011;5911;51.036;6.972;2022-07-29T05:07:57;3.72;;;2.00;;
11709;SDS011;5911;51.036;6.972;2022-07-29T05:10:25;3.17;;;1.60;;
11709;SDS011;5911;51.036;6.972;2022-07-29T05:12:53;5.47;;;1.83;;
11709;SDS011;5911;51.036;6.972;2022-07-29T05:15:21;5.47;;;1.95;;
11709;SDS011;5911;51.036;6.972;2022-07-29T05:17:49;2.75;;;1.70;;
11709;SDS011;5911;51.036;6.972;2022-07-29T05:20:17;5.68;;;2.03;;
11709;SDS011;5911;51.036;6.972;2022-07-29T05:22:52;4.22;;;1.85;;
11709;SDS011;5911;51.036;6.972;2022-07-29T05:25:21;6.13;;;1.75;;
11709;SDS011;5911;51.036;6.972;2022-07-29T05:28:08;6.15;;;2.15;;
11709;SDS011;5911;51.036;6.972;2022-07-29T05:30:36;4.13;;;2.00;;
11709;SDS011;5911;51.036;6.972;2022-07-29T05:33:04;4.43;;;2.03;;
11709;SDS011;5911;51.036;6.972;2022-07-29T05:35:32;3.60;;;1.67;;
11709;SDS011;5911;51.036;6.972;2022-07-29T05:38:01;6.30;;;1.92;;
11709;SDS011;5911;51.036;6.972;2022-07-29T05:40:30;5.28;;;2.20;;
11709;SDS011;5911;51.036;6.972;2022-07-29T05:42:58;7.15;;;1.83;;
11709;SDS011;5911;51.036;6.972;2022-07-29T05:45:26;4.95;;;1.75;;
11709;SDS011;5911;51.036;6.972;2022-07-29T05:47:54;7.63;;;2.20;;
11709;SDS011;5911;51.036;6.972;2022-07-29T05:50:23;3.00;;;1.98;;
11709;SDS011;5911;51.036;6.972;2022-07-29T05:52:51;5.43;;;2.10;;
11709;SDS011;5911;51.036;6.972;2022-07-29T05:55:18;4.57;;;1.80;;
11709;SDS011;5911;51.036;6.972;2022-07-29T05:57:48;7.93;;;2.08;;
11709;SDS011;5911;51.036;6.972;2022-07-29T06:00:16;5.63;;;1.88;;
11709;SDS011;5911;51.036;6.972;2022-07-29T06:02:44;5.35;;;1.90;;
11709;SDS011;5911;51.036;6.972;2022-07-29T06:05:17;7.75;;;2.65;;
11709;SDS011;5911;51.036;6.972;2022-07-29T06:07:44;4.72;;;1.90;;
11709;SDS011;5911;51.036;6.972;2022-07-29T06:10:16;4.25;;;1.95;;
11709;SDS011;5911;51.036;6.972;2022-07-29T06:12:50;4.95;;;1.90;;
11709;SDS011;5911;51.036;6.972;2022-07-29T06:15:18;3.40;;;2.17;;
11709;SDS011;5911;51.036;6.972;2022-07-29T06:17:46;7.07;;;1.90;;
11709;SDS011;5911;51.036;6.972;2022-07-29T06:20:26;2.45;;;1.73;;
11709;SDS011;5911;51.036;6.972;2022-07-29T06:22:56;4.47;;;1.95;;
11709;SDS011;5911;51.036;6.972;2022-07-29T06:25:24;5.35;;;1.83;;
11709;SDS011;5911;51.036;6.972;2022-07-29T06:27:53;4.85;;;2.00;;
11709;SDS011;5911;51.036;6.972;2022-07-29T06:30:24;5.82;;;1.92;;
11709;SDS011;5911;51.036;6.972;2022-07-29T06:32:55;4.57;;;1.63;;
11709;SDS011;5911;51.036;6.972;2022-07-29T06:35:23;5.60;;;1.60;;
11709;SDS011;5911;51.036;6.972;2022-07-29T06:38:07;3.25;;;1.50;;
11709;SDS011;5911;51.036;6.972;2022-07-29T06:40:55;4.93;;;2.20;;
11709;SDS011;5911;51.036;6.972;2022-07-29T06:43:31;6.30;;;2.20;;
11709;SDS011;5911;51.036;6.972;2022-07-29T06:46:16;4.50;;;2.38;;
11709;SDS011;5911;51.036;6.972;2022-07-29T06:48:46;6.28;;;2.30;;
11709;SDS011;5911;51.036;6.972;2022-07-29T06:51:15;5.32;;;1.98;;
11709;SDS011;5911;51.036;6.972;2022-07-29T06:53:49;2.63;;;1.75;;
11709;SDS011;5911;51.036;6.972;2022-07-29T06:56:28;4.28;;;1.92;;
11709;SDS011;5911;51.036;6.972;2022-07-29T06:58:58;3.67;;;1.70;;
11709;SDS011;5911;51.036;6.972;2022-07-29T07:01:26;4.50;;;1.80;;
11709;SDS011;5911;51.036;6.972;2022-07-29T07:03:54;5.70;;;2.47;;
11709;SDS011;5911;51.036;6.972;2022-07-29T07:06:24;8.25;;;1.83;;
11709;SDS011;5911;51.036;6.972;2022-07-29T07:08:55;5.15;;;1.90;;
11709;SDS011;5911;51.036;6.972;2022-07-29T07:11:23;5.90;;;1.83;;
11709;SDS011;5911;51.036;6.972;2022-07-29T07:13:55;5.10;;;1.67;;
11709;SDS011;5911;51.036;6.972;2022-07-29T07:16:30;4.57;;;2.17;;
11709;SDS011;5911;51.036;6.972;2022-07-29T07:18:58;6.72;;;2.05;;
11709;SDS011;5911;51.036;6.972;2022-07-29T07:21:26;6.43;;;2.60;;
11709;SDS011;5911;51.036;6.972;2022-07-29T07:23:56;7.70;;;2.63;;
11709;SDS011;5911;51.036;6.972;2022-07-29T07:26:25;5.95;;;2.35;;
11709;SDS011;5911;51.036;6.972;2022-07-29T07:28:53;8.50;;;2.28;;
11709;SDS011;5911;51.036;6.972;2022-07-29T07:31:21;8.75;;;3.00;;
11709;SDS011;5911;51.036;6.972;2022-07-29T07:33:53;5.28;;;2.42;;
11709;SDS011;5911;51.036;6.972;2022-07-29T07:36:22;7.90;;;2.40;;
11709;SDS011;5911;51.036;6.972;2022-07-29T07:38:50;6.45;;;2.58;;
11709;SDS011;5911;51.036;6.972;2022-07-29T07:41:18;4.55;;;2.38;;
11709;SDS011;5911;51.036;6.972;2022-07-29T07:43:47;6.50;;;2.75;;
11709;SDS011;5911;51.036;6.972;2022-07-29T07:46:15;4.95;;;2.17;;
11709;SDS011;5911;51.036;6.972;2022-07-29T07:48:44;6.82;;;2.63;;
11709;SDS011;5911;51.036;6.972;2022-07-29T07:51:15;7.70;;;2.75;;
11709;SDS011;5911;51.036;6.972;2022-07-29T07:53:42;5.55;;;2.00;;
11709;SDS011;5911;51.036;6.972;2022-07-29T07:56:11;8.02;;;2.13;;
11709;SDS011;5911;51.036;6.972;2022-07-29T07:58:43;4.60;;;2.10;;
11709;SDS011;5911;51.036;6.972;2022-07-29T08:01:11;7.55;;;2.45;;
11709;SDS011;5911;51.036;6.972;2022-07-29T08:03:39;6.85;;;2.42;;
11709;SDS011;5911;51.036;6.972;2022-07-29T08:06:07;6.05;;;2.08;;
11709;SDS011;5911;51.036;6.972;2022-07-29T08:08:36;4.97;;;1.90;;
11709;SDS011;5911;51.036;6.972;2022-07-29T08:11:06;5.18;;;1.75;;
11709;SDS011;5911;51.036;6.972;2022-07-29T08:13:40;2.90;;;2.10;;
11709;SDS011;5911;51.036;6.972;2022-07-29T08:16:09;4.40;;;2.15;;
11709;SDS011;5911;51.036;6.972;2022-07-29T08:18:41;7.32;;;2.30;;
11709;SDS011;5911;51.036;6.972;2022-07-29T08:21:11;5.80;;;2.20;;
11709;SDS011;5911;51.036;6.972;2022-07-29T08:23:42;5.88;;;3.00;;
11709;SDS011;5911;51.036;6.972;2022-07-29T08:26:25;4.65;;;2.47;;
11709;SDS011;5911;51.036;6.972;2022-07-29T08:28:53;4.35;;;2.45;;
11709;SDS011;5911;51.036;6.972;2022-07-29T08:31:21;5.78;;;2.60;;
11709;SDS011;5911;51.036;6.972;2022-07-29T08:33:49;7.32;;;2.58;;
11709;SDS011;5911;51.036;6.972;2022-07-29T08:36:16;6.20;;;2.28;;
11709;SDS011;5911;51.036;6.972;2022-07-29T08:38:48;8.02;;;2.30;;
11709;SDS011;5911;51.036;6.972;2022-07-29T08:41:17;6.20;;;2.45;;
11709;SDS011;5911;51.036;6.972;2022-07-29T08:43:45;5.88;;;2.70;;
11709;SDS011;5911;51.036;6.972;2022-07-29T08:46:13;4.97;;;2.90;;
11709;SDS011;5911;51.036;6.972;2022-07-29T08:48:42;4.10;;;2.60;;
11709;SDS011;5911;51.036;6.972;2022-07-29T08:51:12;8.25;;;2.90;;
11709;SDS011;5911;51.036;6.972;2022-07-29T08:53:41;7.40;;;2.67;;
11709;SDS011;5911;51.036;6.972;2022-07-29T08:56:12;8.45;;;2.90;;
11709;SDS011;5911;51.036;6.972;2022-07-29T08:58:43;8.95;;;2.85;;
11709;SDS011;5911;51.036;6.972;2022-07-29T09:01:21;8.85;;;3.60;;
11709;SDS011;5911;51.036;6.972;2022-07-29T09:04:02;5.13;;;2.60;;
11709;SDS011;5911;51.036;6.972;2022-07-29T09:06:32;6.75;;;2.60;;
11709;SDS011;5911;51.036;6.972;2022-07-29T09:09:04;4.65;;;2.75;;
11709;SDS011;5911;51.036;6.972;2022-07-29T09:11:33;3.70;;;2.67;;
11709;SDS011;5911;51.036;6.972;2022-07-29T09:14:01;6.25;;;2.70;;
11709;SDS011;5911;51.036;6.972;2022-07-29T09:16:43;6.60;;;3.03;;
11709;SDS011;5911;51.036;6.972;2022-07-29T09:19:19;6.57;;;2.75;;
11709;SDS011;5911;51.036;6.972;2022-07-29T09:21:49;9.40;;;2.80;;
11709;SDS011;5911;51.036;6.972;2022-07-29T09:24:42;5.90;;;2.67;;
11709;SDS011;5911;51.036;6.972;2022-07-29T09:27:18;6.18;;;2.72;;
11709;SDS011;5911;51.036;6.972;2022-07-29T09:29:55;7.68;;;3.03;;
11709;SDS011;5911;51.036;6.972;2022-07-29T09:32:24;5.00;;;2.50;;
11709;SDS011;5911;51.036;6.972;2022-07-29T09:34:58;4.75;;;2.75;;
11709;SDS011;5911;51.036;6.972;2022-07-29T09:37:41;5.38;;;3.22;;
11709;SDS011;5911;51.036;6.972;2022-07-29T09:40:14;9.27;;;3.15;;
11709;SDS011;5911;51.036;6.972;2022-07-29T09:42:45;8.88;;;3.20;;
11709;SDS011;5911;51.036;6.972;2022-07-29T09:45:25;6.30;;;3.03;;
11709;SDS011;5911;51.036;6.972;2022-07-29T09:47:54;5.43;;;3.00;;
11709;SDS011;5911;51.036;6.972;2022-07-29T09:50:34;5.47;;;3.00;;
11709;SDS011;5911;51.036;6.972;2022-07-29T09:53:03;9.60;;;2.90;;
11709;SDS011;5911;51.036;6.972;2022-07-29T09:55:31;6.00;;;3.20;;
11709;SDS011;5911;51.036;6.972;2022-07-29T09:58:16;8.88;;;3.30;;
11709;SDS011;5911;51.036;6.972;2022-07-29T10:00:45;6.20;;;2.78;;
11709;SDS011;5911;51.036;6.972;2022-07-29T10:03:14;4.60;;;2.67;;
11709;SDS011;5911;51.036;6.972;2022-07-29T10:05:43;9.05;;;3.10;;
11709;SDS011;5911;51.036;6.972;2022-07-29T10:08:11;9.18;;;3.28;;
11709;SDS011;5911;51.036;6.972;2022-07-29T10:10:40;5.15;;;3.05;;
11709;SDS011;5911;51.036;6.972;2022-07-29T10:13:11;7.25;;;3.10;;
11709;SDS011;5911;51.036;6.972;2022-07-29T10:15:43;8.52;;;3.42;;
11709;SDS011;5911;51.036;6.972;2022-07-29T10:18:13;9.63;;;3.65;;
11709;SDS011;5911;51.036;6.972;2022-07-29T10:20:43;8.10;;;3.63;;
11709;SDS011;5911;51.036;6.972;2022-07-29T10:23:11;16.73;;;3.65;;
11709;SDS011;5911;51.036;6.972;2022-07-29T10:25:40;6.68;;;3.50;;
11709;SDS011;5911;51.036;6.972;2022-07-29T10:28:12;5.65;;;3.92;;
11709;SDS011;5911;51.036;6.972;2022-07-29T10:30:43;4.15;;;3.10;;
11709;SDS011;5911;51.036;6.972;2022-07-29T10:33:18;4.68;;;3.40;;
11709;SDS011;5911;51.036;6.972;2022-07-29T10:36:02;6.43;;;3.50;;
11709;SDS011;5911;51.036;6.972;2022-07-29T10:38:42;5.35;;;3.65;;
11709;SDS011;5911;51.036;6.972;2022-07-29T10:41:18;7.13;;;3.13;;
11709;SDS011;5911;51.036;6.972;2022-07-29T10:44:12;8.38;;;4.13;;
11709;SDS011;5911;51.036;6.972;2022-07-29T10:46:46;3.83;;;3.15;;
11709;SDS011;5911;51.036;6.972;2022-07-29T10:49:15;6.50;;;3.38;;
11709;SDS011;5911;51.036;6.972;2022-07-29T10:51:51;6.28;;;3.00;;
11709;SDS011;5911;51.036;6.972;2022-07-29T10:54:37;5.40;;;3.13;;
11709;SDS011;5911;51.036;6.972;2022-07-29T10:57:16;6.40;;;3.63;;
11709;SDS011;5911;51.036;6.972;2022-07-29T10:59:58;9.20;;;3.47;;
11709;SDS011;5911;51.036;6.972;2022-07-29T11:03:00;7.70;;;3.25;;
11709;SDS011;5911;51.036;6.972;2022-07-29T11:08:43;6.07;;;2.95;;
11709;SDS011;5911;51.036;6.972;2022-07-29T11:14:09;4.15;;;2.83;;
11709;SDS011;5911;51.036;6.972;2022-07-29T11:19:34;3.40;;;2.22;;
11709;SDS011;5911;51.036;6.972;2022-07-29T11:22:07;3.67;;;2.63;;
11709;SDS011;5911;51.036;6.972;2022-07-29T11:24:36;7.47;;;3.63;;
11709;SDS011;5911;51.036;6.972;2022-07-29T11:27:16;4.88;;;2.50;;
11709;SDS011;5911;51.036;6.972;2022-07-29T11:29:50;3.58;;;2.67;;
11709;SDS011;5911;51.036;6.972;2022-07-29T11:32:20;2.42;;;2.22;;
11709;SDS011;5911;51.036;6.972;2022-07-29T11:35:09;6.00;;;2.50;;
11709;SDS011;5911;51.036;6.972;2022-07-29T11:37:44;5.75;;;2.47;;
11709;SDS011;5911;51.036;6.972;2022-07-29T11:40:20;5.28;;;2.42;;
11709;SDS011;5911;51.036;6.972;2022-07-29T11:42:49;5.47;;;2.50;;
11709;SDS011;5911;51.036;6.972;2022-07-29T11:45:25;5.97;;;2.40;;
11709;SDS011;5911;51.036;6.972;2022-07-29T11:48:15;1.92;;;1.70;;
11709;SDS011;5911;51.036;6.972;2022-07-29T11:50:56;6.30;;;2.40;;
11709;SDS011;5911;51.036;6.972;2022-07-29T11:53:25;3.25;;;2.30;;
11709;SDS011;5911;51.036;6.972;2022-07-29T11:55:58;3.33;;;2.17;;
11709;SDS011;5911;51.036;6.972;2022-07-29T11:58:28;3.13;;;2.00;;
11709;SDS011;5911;51.036;6.972;2022-07-29T12:00:57;4.10;;;2.20;;
11709;SDS011;5911;51.036;6.972;2022-07-29T12:03:30;4.03;;;2.58;;
11709;SDS011;5911;51.036;6.972;2022-07-29T12:06:04;5.20;;;2.20;;
11709;SDS011;5911;51.036;6.972;2022-07-29T12:08:43;4.88;;;2.58;;
11709;SDS011;5911;51.036;6.972;2022-07-29T12:11:16;4.03;;;2.35;;
11709;SDS011;5911;51.036;6.972;2022-07-29T12:13:47;4.78;;;2.10;;
11709;SDS011;5911;51.036;6.972;2022-07-29T12:16:16;3.80;;;2.45;;
11709;SDS011;5911;51.036;6.972;2022-07-29T12:18:55;4.65;;;2.15;;
11709;SDS011;5911;51.036;6.972;2022-07-29T12:21:26;6.57;;;2.25;;
11709;SDS011;5911;51.036;6.972;2022-07-29T12:23:55;3.35;;;2.00;;
11709;SDS011;5911;51.036;6.972;2022-07-29T12:26:34;6.78;;;2.70;;
11709;SDS011;5911;51.036;6.972;2022-07-29T12:29:02;5.75;;;2.20;;
11709;SDS011;5911;51.036;6.972;2022-07-29T12:31:36;6.82;;;2.10;;
11709;SDS011;5911;51.036;6.972;2022-07-29T12:34:10;4.15;;;2.30;;
11709;SDS011;5911;51.036;6.972;2022-07-29T12:36:41;7.63;;;2.40;;
11709;SDS011;5911;51.036;6.972;2022-07-29T12:39:10;4.10;;;2.00;;
11709;SDS011;5911;51.036;6.972;2022-07-29T12:41:38;6.47;;;2.35;;
11709;SDS011;5911;51.036;6.972;2022-07-29T12:44:07;5.70;;;2.03;;
11709;SDS011;5911;51.036;6.972;2022-07-29T12:46:35;4.88;;;2.45;;
11709;SDS011;5911;51.036;6.972;2022-07-29T12:49:05;5.05;;;2.20;;
11709;SDS011;5911;51.036;6.972;2022-07-29T12:51:33;3.92;;;2.15;;
11709;SDS011;5911;51.036;6.972;2022-07-29T12:54:06;4.45;;;1.92;;
11709;SDS011;5911;51.036;6.972;2022-07-29T12:56:34;4.18;;;1.98;;
11709;SDS011;5911;51.036;6.972;2022-07-29T12:59:12;3.35;;;1.90;;
11709;SDS011;5911;51.036;6.972;2022-07-29T13:01:41;5.35;;;1.80;;
11709;SDS011;5911;51.036;6.972;2022-07-29T13:04:09;3.25;;;1.70;;
11709;SDS011;5911;51.036;6.972;2022-07-29T13:06:39;6.45;;;3.05;;
11709;SDS011;5911;51.036;6.972;2022-07-29T13:09:16;2.38;;;2.08;;
11709;SDS011;5911;51.036;6.972;2022-07-29T13:11:47;3.05;;;2.03;;
11709;SDS011;5911;51.036;6.972;2022-07-29T13:14:29;3.38;;;2.10;;
11709;SDS011;5911;51.036;6.972;2022-07-29T13:17:03;5.07;;;2.30;;
11709;SDS011;5911;51.036;6.972;2022-07-29T13:19:33;4.63;;;2.50;;
11709;SDS011;5911;51.036;6.972;2022-07-29T13:22:06;4.72;;;2.20;;
11709;SDS011;5911;51.036;6.972;2022-07-29T13:24:46;4.90;;;2.22;;
11709;SDS011;5911;51.036;6.972;2022-07-29T13:27:15;3.00;;;2.13;;
11709;SDS011;5911;51.036;6.972;2022-07-29T13:29:44;5.38;;;2.50;;
11709;SDS011;5911;51.036;6.972;2022-07-29T13:32:12;6.13;;;3.17;;
11709;SDS011;5911;51.036;6.972;2022-07-29T13:34:41;5.47;;;3.05;;
11709;SDS011;5911;51.036;6.972;2022-07-29T13:37:08;6.95;;;3.95;;
11709;SDS011;5911;51.036;6.972;2022-07-29T13:39:37;8.10;;;3.15;;
11709;SDS011;5911;51.036;6.972;2022-07-29T13:42:18;7.18;;;3.50;;
11709;SDS011;5911;51.036;6.972;2022-07-29T13:44:52;5.85;;;3.00;;
11709;SDS011;5911;51.036;6.972;2022-07-29T13:47:21;4.38;;;2.95;;
11709;SDS011;5911;51.036;6.972;2022-07-29T13:49:58;7.18;;;3.17;;
11709;SDS011;5911;51.036;6.972;2022-07-29T13:52:26;7.82;;;3.10;;
11709;SDS011;5911;51.036;6.972;2022-07-29T13:54:54;7.88;;;2.95;;
11709;SDS011;5911;51.036;6.972;2022-07-29T13:57:24;7.40;;;3.30;;
11709;SDS011;5911;51.036;6.972;2022-07-29T13:59:52;10.00;;;3.20;;
11709;SDS011;5911;51.036;6.972;2022-07-29T14:02:20;6.97;;;3.50;;
11709;SDS011;5911;51.036;6.972;2022-07-29T14:04:50;8.05;;;3.80;;
11709;SDS011;5911;51.036;6.972;2022-07-29T14:07:18;7.55;;;3.25;;
11709;SDS011;5911;51.036;6.972;2022-07-29T14:09:46;8.02;;;3.28;;
11709;SDS011;5911;51.036;6.972;2022-07-29T14:12:14;10.25;;;3.17;;
11709;SDS011;5911;51.036;6.972;2022-07-29T14:14:43;4.97;;;2.53;;
11709;SDS011;5911;51.036;6.972;2022-07-29T14:17:12;5.97;;;3.20;;
11709;SDS011;5911;51.036;6.972;2022-07-29T14:19:55;7.03;;;3.05;;
11709;SDS011;5911;51.036;6.972;2022-07-29T14:22:27;4.85;;;3.22;;
11709;SDS011;5911;51.036;6.972;2022-07-29T14:24:56;8.68;;;3.58;;
11709;SDS011;5911;51.036;6.972;2022-07-29T14:27:30;7.20;;;2.42;;
11709;SDS011;5911;51.036;6.972;2022-07-29T14:30:05;5.68;;;2.75;;
11709;SDS011;5911;51.036;6.972;2022-07-29T14:32:34;8.95;;;3.10;;
11709;SDS011;5911;51.036;6.972;2022-07-29T14:35:04;6.70;;;2.78;;
11709;SDS011;5911;51.036;6.972;2022-07-29T14:37:32;5.82;;;3.30;;
11709;SDS011;5911;51.036;6.972;2022-07-29T14:40:06;9.73;;;2.95;;
11709;SDS011;5911;51.036;6.972;2022-07-29T14:42:35;6.47;;;2.78;;
11709;SDS011;5911;51.036;6.972;2022-07-29T14:45:05;5.10;;;2.75;;
11709;SDS011;5911;51.036;6.972;2022-07-29T14:47:34;5.38;;;2.50;;
11709;SDS011;5911;51.036;6.972;2022-07-29T14:50:03;3.53;;;2.40;;
11709;SDS011;5911;51.036;6.972;2022-07-29T14:52:32;6.78;;;2.95;;
11709;SDS011;5911;51.036;6.972;2022-07-29T14:55:00;5.60;;;3.15;;
11709;SDS011;5911;51.036;6.972;2022-07-29T14:57:30;4.10;;;2.72;;
11709;SDS011;5911;51.036;6.972;2022-07-29T14:59:58;3.75;;;2.45;;
11709;SDS011;5911;51.036;6.972;2022-07-29T15:02:27;5.07;;;2.75;;
11709;SDS011;5911;51.036;6.972;2022-07-29T15:05:15;8.77;;;2.90;;
11709;SDS011;5911;51.036;6.972;2022-07-29T15:07:43;3.50;;;2.45;;
11709;SDS011;5911;51.036;6.972;2022-07-29T15:10:10;9.32;;;2.90;;
11709;SDS011;5911;51.036;6.972;2022-07-29T15:12:40;7.68;;;3.03;;
11709;SDS011;5911;51.036;6.972;2022-07-29T15:15:08;6.82;;;2.90;;
11709;SDS011;5911;51.036;6.972;2022-07-29T15:17:38;4.75;;;2.55;;
11709;SDS011;5911;51.036;6.972;2022-07-29T15:20:06;5.35;;;2.53;;
11709;SDS011;5911;51.036;6.972;2022-07-29T15:22:35;6.55;;;2.25;;
11709;SDS011;5911;51.036;6.972;2022-07-29T15:25:04;6.65;;;2.60;;
11709;SDS011;5911;51.036;6.972;2022-07-29T15:27:33;4.07;;;2.35;;
11709;SDS011;5911;51.036;6.972;2022-07-29T15:30:01;4.28;;;2.30;;
11709;SDS011;5911;51.036;6.972;2022-07-29T15:32:29;6.15;;;2.20;;
11709;SDS011;5911;51.036;6.972;2022-07-29T15:35:00;4.47;;;2.50;;